sensor_id;sensor_type;location;lat;lon;timestamp;P1;durP1;ratioP1;P2;durP2;ratioP2
34832;SDS011;55941;50.800;4.342;2022-11-20T00:00:53;83.35;;;45.22;;
34832;SDS011;55941;50.800;4.342;2022-11-20T00:03:19;90.82;;;44.50;;
34832;SDS011;55941;50.800;4.342;2022-11-20T00:05:44;86.55;;;45.42;;
34832;SDS011;55941;50.800;4.342;2022-11-20T00:08:10;76.28;;;44.13;;
34832;SDS011;55941;50.800;4.342;2022-11-20T00:10:37;74.78;;;43.00;;
34832;SDS011;55941;50.800;4.342;2022-11-20T00:13:03;81.53;;;42.78;;
34832;SDS011;55941;50.800;4.342;2022-11-20T00:15:29;82.18;;;43.70;;
34832;SDS011;55941;50.800;4.342;2022-11-20T00:17:55;93.53;;;45.80;;
34832;SDS011;55941;50.800;4.342;2022-11-20T00:20:21;82.22;;;45.15;;
34832;SDS011;55941;50.800;4.342;2022-11-20T00:22:47;84.63;;;45.45;;
34832;SDS011;55941;50.800;4.342;2022-11-20T00:25:13;78.28;;;45.25;;
34832;SDS011;55941;50.800;4.342;2022-11-20T00:27:38;82.63;;;43.63;;
34832;SDS011;55941;50.800;4.342;2022-11-20T00:30:05;83.13;;;44.78;;
34832;SDS011;55941;50.800;4.342;2022-11-20T00:32:32;90.65;;;42.88;;
34832;SDS011;55941;50.800;4.342;2022-11-20T00:34:58;74.60;;;42.92;;
34832;SDS011;55941;50.800;4.342;2022-11-20T00:37:25;86.53;;;43.53;;
34832;SDS011;55941;50.800;4.342;2022-11-20T00:39:51;70.22;;;42.72;;
34832;SDS011;55941;50.800;4.342;2022-11-20T00:42:16;79.40;;;42.10;;
34832;SDS011;55941;50.800;4.342;2022-11-20T00:44:42;76.07;;;42.10;;
34832;SDS011;55941;50.800;4.342;2022-11-20T00:47:08;81.70;;;42.78;;
34832;SDS011;55941;50.800;4.342;2022-11-20T00:49:33;78.07;;;42.22;;
34832;SDS011;55941;50.800;4.342;2022-11-20T00:51:59;73.50;;;41.65;;
34832;SDS011;55941;50.800;4.342;2022-11-20T00:54:25;79.93;;;42.63;;
34832;SDS011;55941;50.800;4.342;2022-11-20T00:56:54;73.78;;;41.42;;
34832;SDS011;55941;50.800;4.342;2022-11-20T00:59:20;83.28;;;41.85;;
34832;SDS011;55941;50.800;4.342;2022-11-20T01:01:47;77.63;;;41.70;;
34832;SDS011;55941;50.800;4.342;2022-11-20T01:04:13;75.60;;;41.67;;
34832;SDS011;55941;50.800;4.342;2022-11-20T01:06:39;74.57;;;41.78;;
34832;SDS011;55941;50.800;4.342;2022-11-20T01:09:10;77.88;;;42.38;;
34832;SDS011;55941;50.800;4.342;2022-11-20T01:11:38;86.40;;;42.08;;
34832;SDS011;55941;50.800;4.342;2022-11-20T01:14:13;69.50;;;43.10;;
34832;SDS011;55941;50.800;4.342;2022-11-20T01:16:45;73.07;;;40.53;;
34832;SDS011;55941;50.800;4.342;2022-11-20T01:19:14;73.70;;;42.25;;
34832;SDS011;55941;50.800;4.342;2022-11-20T01:21:42;78.68;;;43.50;;
34832;SDS011;55941;50.800;4.342;2022-11-20T01:24:11;77.95;;;43.67;;
34832;SDS011;55941;50.800;4.342;2022-11-20T01:26:40;85.78;;;42.63;;
34832;SDS011;55941;50.800;4.342;2022-11-20T01:29:10;80.28;;;45.33;;
34832;SDS011;55941;50.800;4.342;2022-11-20T01:31:39;82.20;;;43.50;;
34832;SDS011;55941;50.800;4.342;2022-11-20T01:34:15;79.63;;;43.00;;
34832;SDS011;55941;50.800;4.342;2022-11-20T01:36:43;76.78;;;42.42;;
34832;SDS011;55941;50.800;4.342;2022-11-20T01:39:11;83.07;;;44.35;;
34832;SDS011;55941;50.800;4.342;2022-11-20T01:41:39;78.60;;;43.55;;
34832;SDS011;55941;50.800;4.342;2022-11-20T01:44:43;83.15;;;41.65;;
34832;SDS011;55941;50.800;4.342;2022-11-20T01:47:16;83.47;;;44.75;;
34832;SDS011;55941;50.800;4.342;2022-11-20T01:49:49;81.95;;;41.38;;
34832;SDS011;55941;50.800;4.342;2022-11-20T01:52:21;86.45;;;44.40;;
34832;SDS011;55941;50.800;4.342;2022-11-20T01:54:56;77.87;;;44.83;;
34832;SDS011;55941;50.800;4.342;2022-11-20T01:57:27;82.60;;;43.70;;
34832;SDS011;55941;50.800;4.342;2022-11-20T01:59:57;79.65;;;44.85;;
34832;SDS011;55941;50.800;4.342;2022-11-20T02:02:29;87.70;;;45.13;;
34832;SDS011;55941;50.800;4.342;2022-11-20T02:04:56;89.35;;;44.88;;
34832;SDS011;55941;50.800;4.342;2022-11-20T02:07:28;90.60;;;44.33;;
34832;SDS011;55941;50.800;4.342;2022-11-20T02:09:54;93.68;;;45.67;;
34832;SDS011;55941;50.800;4.342;2022-11-20T02:12:20;82.35;;;44.28;;
34832;SDS011;55941;50.800;4.342;2022-11-20T02:15:05;85.13;;;44.88;;
34832;SDS011;55941;50.800;4.342;2022-11-20T02:17:31;83.75;;;44.60;;
34832;SDS011;55941;50.800;4.342;2022-11-20T02:19:57;84.95;;;46.25;;
34832;SDS011;55941;50.800;4.342;2022-11-20T02:22:26;93.15;;;45.85;;
34832;SDS011;55941;50.800;4.342;2022-11-20T02:24:56;85.40;;;44.47;;
34832;SDS011;55941;50.800;4.342;2022-11-20T02:27:25;80.57;;;44.13;;
34832;SDS011;55941;50.800;4.342;2022-11-20T02:32:28;92.30;;;46.58;;
34832;SDS011;55941;50.800;4.342;2022-11-20T02:34:56;95.20;;;49.05;;
34832;SDS011;55941;50.800;4.342;2022-11-20T02:37:22;100.57;;;46.83;;
34832;SDS011;55941;50.800;4.342;2022-11-20T02:39:50;88.75;;;44.60;;
34832;SDS011;55941;50.800;4.342;2022-11-20T02:42:17;97.22;;;49.47;;
34832;SDS011;55941;50.800;4.342;2022-11-20T02:44:43;94.95;;;48.03;;
34832;SDS011;55941;50.800;4.342;2022-11-20T02:47:09;100.85;;;46.08;;
34832;SDS011;55941;50.800;4.342;2022-11-20T02:49:35;86.45;;;44.30;;
34832;SDS011;55941;50.800;4.342;2022-11-20T02:52:01;88.15;;;45.00;;
34832;SDS011;55941;50.800;4.342;2022-11-20T02:54:27;79.93;;;42.13;;
34832;SDS011;55941;50.800;4.342;2022-11-20T02:56:53;82.47;;;43.47;;
34832;SDS011;55941;50.800;4.342;2022-11-20T02:59:19;82.57;;;41.50;;
34832;SDS011;55941;50.800;4.342;2022-11-20T03:01:45;85.90;;;42.17;;
34832;SDS011;55941;50.800;4.342;2022-11-20T03:04:10;73.20;;;41.13;;
34832;SDS011;55941;50.800;4.342;2022-11-20T03:06:36;80.82;;;42.88;;
34832;SDS011;55941;50.800;4.342;2022-11-20T03:09:03;81.97;;;40.83;;
34832;SDS011;55941;50.800;4.342;2022-11-20T03:11:29;74.40;;;39.92;;
34832;SDS011;55941;50.800;4.342;2022-11-20T03:13:55;68.38;;;38.72;;
34832;SDS011;55941;50.800;4.342;2022-11-20T03:16:22;67.45;;;38.08;;
34832;SDS011;55941;50.800;4.342;2022-11-20T03:18:49;69.97;;;38.58;;
34832;SDS011;55941;50.800;4.342;2022-11-20T03:21:18;78.45;;;38.97;;
34832;SDS011;55941;50.800;4.342;2022-11-20T03:23:45;74.65;;;37.95;;
34832;SDS011;55941;50.800;4.342;2022-11-20T03:26:12;69.43;;;36.92;;
34832;SDS011;55941;50.800;4.342;2022-11-20T03:28:41;71.28;;;37.92;;
34832;SDS011;55941;50.800;4.342;2022-11-20T03:31:12;71.15;;;36.05;;
34832;SDS011;55941;50.800;4.342;2022-11-20T03:33:39;66.40;;;35.80;;
34832;SDS011;55941;50.800;4.342;2022-11-20T03:36:06;74.13;;;38.75;;
34832;SDS011;55941;50.800;4.342;2022-11-20T03:38:37;71.90;;;38.15;;
34832;SDS011;55941;50.800;4.342;2022-11-20T03:41:05;67.82;;;35.78;;
34832;SDS011;55941;50.800;4.342;2022-11-20T03:43:33;66.15;;;36.40;;
34832;SDS011;55941;50.800;4.342;2022-11-20T03:45:59;66.05;;;36.92;;
34832;SDS011;55941;50.800;4.342;2022-11-20T03:48:26;69.88;;;36.47;;
34832;SDS011;55941;50.800;4.342;2022-11-20T03:50:53;67.70;;;36.83;;
34832;SDS011;55941;50.800;4.342;2022-11-20T03:53:31;68.55;;;35.30;;
34832;SDS011;55941;50.800;4.342;2022-11-20T03:55:56;74.60;;;37.70;;
34832;SDS011;55941;50.800;4.342;2022-11-20T03:58:22;65.15;;;36.22;;
34832;SDS011;55941;50.800;4.342;2022-11-20T04:00:48;70.82;;;37.58;;
34832;SDS011;55941;50.800;4.342;2022-11-20T04:03:14;63.97;;;36.15;;
34832;SDS011;55941;50.800;4.342;2022-11-20T04:05:40;69.75;;;36.65;;
34832;SDS011;55941;50.800;4.342;2022-11-20T04:08:06;67.68;;;35.45;;
34832;SDS011;55941;50.800;4.342;2022-11-20T04:10:32;67.85;;;35.20;;
34832;SDS011;55941;50.800;4.342;2022-11-20T04:12:57;69.25;;;35.88;;
34832;SDS011;55941;50.800;4.342;2022-11-20T04:15:23;68.55;;;37.38;;
34832;SDS011;55941;50.800;4.342;2022-11-20T04:17:49;72.13;;;35.80;;
34832;SDS011;55941;50.800;4.342;2022-11-20T04:20:14;71.57;;;38.00;;
34832;SDS011;55941;50.800;4.342;2022-11-20T04:22:40;72.40;;;37.97;;
34832;SDS011;55941;50.800;4.342;2022-11-20T04:25:06;83.32;;;40.28;;
34832;SDS011;55941;50.800;4.342;2022-11-20T04:27:32;86.22;;;42.13;;
34832;SDS011;55941;50.800;4.342;2022-11-20T04:29:58;82.28;;;41.35;;
34832;SDS011;55941;50.800;4.342;2022-11-20T04:32:24;82.35;;;40.17;;
34832;SDS011;55941;50.800;4.342;2022-11-20T04:34:50;84.70;;;41.85;;
34832;SDS011;55941;50.800;4.342;2022-11-20T04:37:16;84.43;;;40.63;;
34832;SDS011;55941;50.800;4.342;2022-11-20T04:39:41;81.13;;;41.30;;
34832;SDS011;55941;50.800;4.342;2022-11-20T04:42:08;90.85;;;42.67;;
34832;SDS011;55941;50.800;4.342;2022-11-20T04:44:53;88.65;;;41.83;;
34832;SDS011;55941;50.800;4.342;2022-11-20T04:47:19;91.20;;;42.00;;
34832;SDS011;55941;50.800;4.342;2022-11-20T04:49:45;92.80;;;44.05;;
34832;SDS011;55941;50.800;4.342;2022-11-20T04:52:11;98.25;;;44.88;;
34832;SDS011;55941;50.800;4.342;2022-11-20T04:54:37;91.65;;;43.20;;
34832;SDS011;55941;50.800;4.342;2022-11-20T04:57:03;94.72;;;43.17;;
34832;SDS011;55941;50.800;4.342;2022-11-20T04:59:29;85.85;;;41.95;;
34832;SDS011;55941;50.800;4.342;2022-11-20T05:01:55;87.78;;;41.10;;
34832;SDS011;55941;50.800;4.342;2022-11-20T05:04:21;92.72;;;43.05;;
34832;SDS011;55941;50.800;4.342;2022-11-20T05:06:47;89.00;;;42.38;;
34832;SDS011;55941;50.800;4.342;2022-11-20T05:09:15;95.30;;;44.47;;
34832;SDS011;55941;50.800;4.342;2022-11-20T05:11:41;89.55;;;41.97;;
34832;SDS011;55941;50.800;4.342;2022-11-20T05:14:07;94.88;;;43.28;;
34832;SDS011;55941;50.800;4.342;2022-11-20T05:16:33;98.63;;;42.35;;
34832;SDS011;55941;50.800;4.342;2022-11-20T05:19:01;95.57;;;44.17;;
34832;SDS011;55941;50.800;4.342;2022-11-20T05:21:26;96.07;;;43.30;;
34832;SDS011;55941;50.800;4.342;2022-11-20T05:23:55;99.00;;;45.00;;
34832;SDS011;55941;50.800;4.342;2022-11-20T05:26:21;94.13;;;43.60;;
34832;SDS011;55941;50.800;4.342;2022-11-20T05:28:48;104.05;;;45.22;;
34832;SDS011;55941;50.800;4.342;2022-11-20T05:31:17;104.00;;;46.22;;
34832;SDS011;55941;50.800;4.342;2022-11-20T05:33:45;91.03;;;43.38;;
34832;SDS011;55941;50.800;4.342;2022-11-20T05:36:13;98.72;;;45.22;;
34832;SDS011;55941;50.800;4.342;2022-11-20T05:38:39;106.57;;;46.72;;
34832;SDS011;55941;50.800;4.342;2022-11-20T05:41:07;113.80;;;48.00;;
34832;SDS011;55941;50.800;4.342;2022-11-20T05:43:35;111.38;;;49.42;;
34832;SDS011;55941;50.800;4.342;2022-11-20T05:46:04;113.60;;;47.22;;
34832;SDS011;55941;50.800;4.342;2022-11-20T05:48:31;118.10;;;48.50;;
34832;SDS011;55941;50.800;4.342;2022-11-20T05:50:59;121.93;;;49.10;;
34832;SDS011;55941;50.800;4.342;2022-11-20T05:53:27;117.10;;;47.85;;
34832;SDS011;55941;50.800;4.342;2022-11-20T05:55:59;106.88;;;45.95;;
34832;SDS011;55941;50.800;4.342;2022-11-20T05:58:28;109.07;;;47.53;;
34832;SDS011;55941;50.800;4.342;2022-11-20T06:00:54;111.13;;;46.15;;
34832;SDS011;55941;50.800;4.342;2022-11-20T06:03:28;107.72;;;48.20;;
34832;SDS011;55941;50.800;4.342;2022-11-20T06:05:54;109.93;;;46.72;;
34832;SDS011;55941;50.800;4.342;2022-11-20T06:08:20;117.30;;;47.33;;
34832;SDS011;55941;50.800;4.342;2022-11-20T06:10:46;112.80;;;47.72;;
34832;SDS011;55941;50.800;4.342;2022-11-20T06:13:12;118.20;;;46.97;;
34832;SDS011;55941;50.800;4.342;2022-11-20T06:15:38;108.30;;;46.38;;
34832;SDS011;55941;50.800;4.342;2022-11-20T06:18:04;116.53;;;47.38;;
34832;SDS011;55941;50.800;4.342;2022-11-20T06:20:30;110.30;;;46.92;;
34832;SDS011;55941;50.800;4.342;2022-11-20T06:22:56;94.00;;;46.33;;
34832;SDS011;55941;50.800;4.342;2022-11-20T06:25:22;103.55;;;44.88;;
34832;SDS011;55941;50.800;4.342;2022-11-20T06:27:48;94.15;;;43.55;;
34832;SDS011;55941;50.800;4.342;2022-11-20T06:30:14;106.45;;;45.97;;
34832;SDS011;55941;50.800;4.342;2022-11-20T06:32:41;101.18;;;43.88;;
34832;SDS011;55941;50.800;4.342;2022-11-20T06:35:07;98.38;;;43.55;;
34832;SDS011;55941;50.800;4.342;2022-11-20T06:37:33;104.28;;;45.30;;
34832;SDS011;55941;50.800;4.342;2022-11-20T06:39:59;103.90;;;42.60;;
34832;SDS011;55941;50.800;4.342;2022-11-20T06:42:25;98.30;;;43.55;;
34832;SDS011;55941;50.800;4.342;2022-11-20T06:44:51;105.95;;;45.70;;
34832;SDS011;55941;50.800;4.342;2022-11-20T06:47:17;106.55;;;45.28;;
34832;SDS011;55941;50.800;4.342;2022-11-20T06:49:43;103.60;;;44.35;;
34832;SDS011;55941;50.800;4.342;2022-11-20T06:52:09;95.78;;;42.90;;
34832;SDS011;55941;50.800;4.342;2022-11-20T06:54:36;94.28;;;42.90;;
34832;SDS011;55941;50.800;4.342;2022-11-20T06:57:02;95.82;;;43.65;;
34832;SDS011;55941;50.800;4.342;2022-11-20T06:59:28;90.75;;;42.95;;
34832;SDS011;55941;50.800;4.342;2022-11-20T07:01:54;90.70;;;43.63;;
34832;SDS011;55941;50.800;4.342;2022-11-20T07:04:20;93.63;;;42.70;;
34832;SDS011;55941;50.800;4.342;2022-11-20T07:06:46;93.28;;;42.80;;
34832;SDS011;55941;50.800;4.342;2022-11-20T07:09:13;90.70;;;42.22;;
34832;SDS011;55941;50.800;4.342;2022-11-20T07:11:39;82.22;;;39.53;;
34832;SDS011;55941;50.800;4.342;2022-11-20T07:14:05;79.70;;;40.15;;
34832;SDS011;55941;50.800;4.342;2022-11-20T07:16:30;81.20;;;39.95;;
34832;SDS011;55941;50.800;4.342;2022-11-20T07:18:56;78.10;;;39.30;;
34832;SDS011;55941;50.800;4.342;2022-11-20T07:21:22;76.40;;;38.65;;
34832;SDS011;55941;50.800;4.342;2022-11-20T07:23:48;79.30;;;38.65;;
34832;SDS011;55941;50.800;4.342;2022-11-20T07:26:15;74.53;;;37.80;;
34832;SDS011;55941;50.800;4.342;2022-11-20T07:28:43;80.50;;;38.30;;
34832;SDS011;55941;50.800;4.342;2022-11-20T07:31:10;79.50;;;37.30;;
34832;SDS011;55941;50.800;4.342;2022-11-20T07:33:37;83.53;;;37.72;;
34832;SDS011;55941;50.800;4.342;2022-11-20T07:36:03;80.60;;;38.30;;
34832;SDS011;55941;50.800;4.342;2022-11-20T07:38:29;80.28;;;38.88;;
34832;SDS011;55941;50.800;4.342;2022-11-20T07:40:55;87.85;;;37.88;;
34832;SDS011;55941;50.800;4.342;2022-11-20T07:43:28;91.97;;;38.72;;
34832;SDS011;55941;50.800;4.342;2022-11-20T07:45:58;83.22;;;38.17;;
34832;SDS011;55941;50.800;4.342;2022-11-20T07:48:24;87.07;;;39.72;;
34832;SDS011;55941;50.800;4.342;2022-11-20T07:50:54;81.85;;;39.00;;
34832;SDS011;55941;50.800;4.342;2022-11-20T07:53:21;77.22;;;38.00;;
34832;SDS011;55941;50.800;4.342;2022-11-20T07:55:47;86.43;;;37.78;;
34832;SDS011;55941;50.800;4.342;2022-11-20T07:58:13;90.93;;;38.10;;
34832;SDS011;55941;50.800;4.342;2022-11-20T08:00:39;92.07;;;39.42;;
34832;SDS011;55941;50.800;4.342;2022-11-20T08:03:06;81.63;;;38.35;;
34832;SDS011;55941;50.800;4.342;2022-11-20T08:05:33;81.10;;;38.42;;
34832;SDS011;55941;50.800;4.342;2022-11-20T08:07:59;94.85;;;40.00;;
34832;SDS011;55941;50.800;4.342;2022-11-20T08:10:25;83.22;;;37.67;;
34832;SDS011;55941;50.800;4.342;2022-11-20T08:12:52;92.43;;;39.05;;
34832;SDS011;55941;50.800;4.342;2022-11-20T08:15:37;86.43;;;39.42;;
34832;SDS011;55941;50.800;4.342;2022-11-20T08:18:10;90.20;;;37.97;;
34832;SDS011;55941;50.800;4.342;2022-11-20T08:20:44;87.90;;;37.35;;
34832;SDS011;55941;50.800;4.342;2022-11-20T08:23:10;89.43;;;38.97;;
34832;SDS011;55941;50.800;4.342;2022-11-20T08:25:40;86.93;;;38.58;;
34832;SDS011;55941;50.800;4.342;2022-11-20T08:28:06;84.47;;;37.75;;
34832;SDS011;55941;50.800;4.342;2022-11-20T08:30:34;83.47;;;37.13;;
34832;SDS011;55941;50.800;4.342;2022-11-20T08:33:05;85.63;;;38.17;;
34832;SDS011;55941;50.800;4.342;2022-11-20T08:35:36;92.32;;;37.70;;
34832;SDS011;55941;50.800;4.342;2022-11-20T08:38:04;90.40;;;37.70;;
34832;SDS011;55941;50.800;4.342;2022-11-20T08:40:31;84.18;;;35.65;;
34832;SDS011;55941;50.800;4.342;2022-11-20T08:42:57;81.20;;;36.08;;
34832;SDS011;55941;50.800;4.342;2022-11-20T08:45:23;75.80;;;35.38;;
34832;SDS011;55941;50.800;4.342;2022-11-20T08:47:49;78.47;;;34.85;;
34832;SDS011;55941;50.800;4.342;2022-11-20T08:50:15;79.22;;;34.90;;
34832;SDS011;55941;50.800;4.342;2022-11-20T08:52:42;79.13;;;34.10;;
34832;SDS011;55941;50.800;4.342;2022-11-20T08:55:09;83.60;;;35.75;;
34832;SDS011;55941;50.800;4.342;2022-11-20T08:57:35;73.57;;;33.28;;
34832;SDS011;55941;50.800;4.342;2022-11-20T09:00:03;77.55;;;33.78;;
34832;SDS011;55941;50.800;4.342;2022-11-20T09:02:31;66.53;;;32.05;;
34832;SDS011;55941;50.800;4.342;2022-11-20T09:04:57;65.22;;;31.35;;
34832;SDS011;55941;50.800;4.342;2022-11-20T09:07:23;76.30;;;33.05;;
34832;SDS011;55941;50.800;4.342;2022-11-20T09:09:49;65.28;;;31.73;;
34832;SDS011;55941;50.800;4.342;2022-11-20T09:12:16;67.15;;;32.20;;
34832;SDS011;55941;50.800;4.342;2022-11-20T09:14:42;70.88;;;31.98;;
34832;SDS011;55941;50.800;4.342;2022-11-20T09:17:09;61.92;;;31.73;;
34832;SDS011;55941;50.800;4.342;2022-11-20T09:19:38;62.88;;;30.95;;
34832;SDS011;55941;50.800;4.342;2022-11-20T09:22:05;59.58;;;29.42;;
34832;SDS011;55941;50.800;4.342;2022-11-20T09:24:31;59.63;;;31.17;;
34832;SDS011;55941;50.800;4.342;2022-11-20T09:26:57;58.10;;;28.38;;
34832;SDS011;55941;50.800;4.342;2022-11-20T09:29:23;59.80;;;29.90;;
34832;SDS011;55941;50.800;4.342;2022-11-20T09:31:49;55.30;;;28.52;;
34832;SDS011;55941;50.800;4.342;2022-11-20T09:34:15;54.03;;;28.55;;
34832;SDS011;55941;50.800;4.342;2022-11-20T09:36:42;49.92;;;26.42;;
34832;SDS011;55941;50.800;4.342;2022-11-20T09:39:08;50.00;;;26.13;;
34832;SDS011;55941;50.800;4.342;2022-11-20T09:47:01;37.95;;;21.13;;
34832;SDS011;55941;50.800;4.342;2022-11-20T09:49:45;44.10;;;21.63;;
34832;SDS011;55941;50.800;4.342;2022-11-20T09:55:06;36.90;;;18.60;;
34832;SDS011;55941;50.800;4.342;2022-11-20T09:57:36;33.83;;;17.50;;
34832;SDS011;55941;50.800;4.342;2022-11-20T10:00:06;32.80;;;16.73;;
34832;SDS011;55941;50.800;4.342;2022-11-20T10:02:47;29.35;;;15.40;;
34832;SDS011;55941;50.800;4.342;2022-11-20T10:05:37;33.97;;;15.55;;
34832;SDS011;55941;50.800;4.342;2022-11-20T10:10:46;27.85;;;15.10;;
34832;SDS011;55941;50.800;4.342;2022-11-20T10:13:39;28.00;;;13.68;;
34832;SDS011;55941;50.800;4.342;2022-11-20T10:16:15;28.60;;;11.75;;
34832;SDS011;55941;50.800;4.342;2022-11-20T10:18:59;21.58;;;11.70;;
34832;SDS011;55941;50.800;4.342;2022-11-20T10:21:38;23.90;;;10.82;;
34832;SDS011;55941;50.800;4.342;2022-11-20T10:24:32;20.65;;;9.57;;
34832;SDS011;55941;50.800;4.342;2022-11-20T10:29:47;21.25;;;9.38;;
34832;SDS011;55941;50.800;4.342;2022-11-20T10:32:38;20.33;;;8.82;;
34832;SDS011;55941;50.800;4.342;2022-11-20T10:35:18;16.88;;;7.55;;
34832;SDS011;55941;50.800;4.342;2022-11-20T10:38:02;17.88;;;7.20;;
34832;SDS011;55941;50.800;4.342;2022-11-20T10:40:37;23.83;;;7.22;;
34832;SDS011;55941;50.800;4.342;2022-11-20T10:43:10;14.23;;;6.45;;
34832;SDS011;55941;50.800;4.342;2022-11-20T10:48:30;16.75;;;5.18;;
34832;SDS011;55941;50.800;4.342;2022-11-20T10:53:48;17.60;;;5.80;;
34832;SDS011;55941;50.800;4.342;2022-11-20T10:57:00;11.20;;;4.95;;
34832;SDS011;55941;50.800;4.342;2022-11-20T11:00:07;9.10;;;4.50;;
34832;SDS011;55941;50.800;4.342;2022-11-20T11:07:50;14.40;;;4.30;;
34832;SDS011;55941;50.800;4.342;2022-11-20T11:13:01;15.00;;;4.00;;
34832;SDS011;55941;50.800;4.342;2022-11-20T11:15:28;11.55;;;4.18;;
34832;SDS011;55941;50.800;4.342;2022-11-20T11:18:22;12.27;;;4.47;;
34832;SDS011;55941;50.800;4.342;2022-11-20T11:20:49;14.35;;;4.07;;
34832;SDS011;55941;50.800;4.342;2022-11-20T11:23:26;10.50;;;4.18;;
34832;SDS011;55941;50.800;4.342;2022-11-20T11:26:02;16.17;;;3.97;;
34832;SDS011;55941;50.800;4.342;2022-11-20T11:28:30;10.55;;;3.70;;
34832;SDS011;55941;50.800;4.342;2022-11-20T11:30:57;17.45;;;4.28;;
34832;SDS011;55941;50.800;4.342;2022-11-20T11:33:30;13.00;;;4.13;;
34832;SDS011;55941;50.800;4.342;2022-11-20T11:36:00;9.80;;;3.78;;
34832;SDS011;55941;50.800;4.342;2022-11-20T11:38:41;14.73;;;3.60;;
34832;SDS011;55941;50.800;4.342;2022-11-20T11:41:09;17.85;;;4.43;;
34832;SDS011;55941;50.800;4.342;2022-11-20T11:43:48;12.38;;;3.58;;
34832;SDS011;55941;50.800;4.342;2022-11-20T11:46:37;12.32;;;3.55;;
34832;SDS011;55941;50.800;4.342;2022-11-20T11:52:00;14.18;;;3.67;;
34832;SDS011;55941;50.800;4.342;2022-11-20T11:54:37;15.27;;;3.33;;
34832;SDS011;55941;50.800;4.342;2022-11-20T11:57:16;9.40;;;3.13;;
34832;SDS011;55941;50.800;4.342;2022-11-20T11:59:52;10.57;;;3.15;;
34832;SDS011;55941;50.800;4.342;2022-11-20T12:04:57;12.23;;;3.50;;
34832;SDS011;55941;50.800;4.342;2022-11-20T12:10:21;13.48;;;3.10;;
34832;SDS011;55941;50.800;4.342;2022-11-20T12:12:55;13.48;;;3.30;;
34832;SDS011;55941;50.800;4.342;2022-11-20T12:15:45;10.68;;;3.67;;
34832;SDS011;55941;50.800;4.342;2022-11-20T12:18:17;8.82;;;2.88;;
34832;SDS011;55941;50.800;4.342;2022-11-20T12:20:46;12.55;;;3.38;;
34832;SDS011;55941;50.800;4.342;2022-11-20T12:23:27;12.20;;;4.00;;
34832;SDS011;55941;50.800;4.342;2022-11-20T12:26:27;8.63;;;3.55;;
34832;SDS011;55941;50.800;4.342;2022-11-20T12:29:13;9.82;;;3.33;;
34832;SDS011;55941;50.800;4.342;2022-11-20T12:34:47;13.60;;;4.22;;
34832;SDS011;55941;50.800;4.342;2022-11-20T12:43:26;10.50;;;3.80;;
34832;SDS011;55941;50.800;4.342;2022-11-20T12:51:39;13.88;;;4.53;;
34832;SDS011;55941;50.800;4.342;2022-11-20T12:57:15;13.20;;;4.72;;
34832;SDS011;55941;50.800;4.342;2022-11-20T13:05:31;14.57;;;3.95;;
34832;SDS011;55941;50.800;4.342;2022-11-20T13:08:16;10.50;;;3.33;;
34832;SDS011;55941;50.800;4.342;2022-11-20T13:10:51;10.65;;;4.00;;
34832;SDS011;55941;50.800;4.342;2022-11-20T13:13:35;15.43;;;3.70;;
34832;SDS011;55941;50.800;4.342;2022-11-20T13:16:17;14.40;;;3.80;;
34832;SDS011;55941;50.800;4.342;2022-11-20T13:18:53;10.15;;;3.65;;
34832;SDS011;55941;50.800;4.342;2022-11-20T13:22:02;14.02;;;4.30;;
34832;SDS011;55941;50.800;4.342;2022-11-20T13:24:22;11.82;;;3.28;;
34832;SDS011;55941;50.800;4.342;2022-11-20T13:29:34;12.82;;;3.50;;
34832;SDS011;55941;50.800;4.342;2022-11-20T13:32:05;8.68;;;3.47;;
34832;SDS011;55941;50.800;4.342;2022-11-20T13:34:53;7.03;;;2.92;;
34832;SDS011;55941;50.800;4.342;2022-11-20T13:37:28;7.85;;;3.42;;
34832;SDS011;55941;50.800;4.342;2022-11-20T13:42:37;10.90;;;3.88;;
34832;SDS011;55941;50.800;4.342;2022-11-20T13:45:10;9.52;;;3.42;;
34832;SDS011;55941;50.800;4.342;2022-11-20T13:47:54;6.63;;;3.03;;
34832;SDS011;55941;50.800;4.342;2022-11-20T13:50:37;11.48;;;3.70;;
34832;SDS011;55941;50.800;4.342;2022-11-20T13:53:37;7.88;;;3.15;;
34832;SDS011;55941;50.800;4.342;2022-11-20T13:56:19;5.78;;;3.03;;
34832;SDS011;55941;50.800;4.342;2022-11-20T13:59:10;8.35;;;2.92;;
34832;SDS011;55941;50.800;4.342;2022-11-20T14:01:56;6.07;;;2.92;;
34832;SDS011;55941;50.800;4.342;2022-11-20T14:04:29;5.75;;;2.63;;
34832;SDS011;55941;50.800;4.342;2022-11-20T14:06:58;4.00;;;2.40;;
34832;SDS011;55941;50.800;4.342;2022-11-20T14:09:32;4.53;;;2.35;;
34832;SDS011;55941;50.800;4.342;2022-11-20T14:11:59;8.05;;;2.20;;
34832;SDS011;55941;50.800;4.342;2022-11-20T14:14:28;10.18;;;2.22;;
34832;SDS011;55941;50.800;4.342;2022-11-20T14:17:05;5.90;;;2.17;;
34832;SDS011;55941;50.800;4.342;2022-11-20T14:19:32;6.82;;;2.60;;
34832;SDS011;55941;50.800;4.342;2022-11-20T14:22:18;4.30;;;2.90;;
34832;SDS011;55941;50.800;4.342;2022-11-20T14:24:48;3.40;;;2.35;;
34832;SDS011;55941;50.800;4.342;2022-11-20T14:27:26;3.90;;;2.50;;
34832;SDS011;55941;50.800;4.342;2022-11-20T14:29:52;5.70;;;2.78;;
34832;SDS011;55941;50.800;4.342;2022-11-20T14:32:19;4.47;;;2.83;;
34832;SDS011;55941;50.800;4.342;2022-11-20T14:34:48;6.63;;;2.80;;
34832;SDS011;55941;50.800;4.342;2022-11-20T14:37:23;5.75;;;3.00;;
34832;SDS011;55941;50.800;4.342;2022-11-20T14:39:53;6.43;;;3.42;;
34832;SDS011;55941;50.800;4.342;2022-11-20T14:42:22;7.60;;;3.30;;
34832;SDS011;55941;50.800;4.342;2022-11-20T14:44:52;6.93;;;3.15;;
34832;SDS011;55941;50.800;4.342;2022-11-20T14:47:22;6.85;;;3.45;;
34832;SDS011;55941;50.800;4.342;2022-11-20T14:49:54;7.55;;;4.10;;
34832;SDS011;55941;50.800;4.342;2022-11-20T14:52:21;8.05;;;3.80;;
34832;SDS011;55941;50.800;4.342;2022-11-20T14:54:50;6.57;;;3.70;;
34832;SDS011;55941;50.800;4.342;2022-11-20T14:59:51;7.72;;;3.08;;
34832;SDS011;55941;50.800;4.342;2022-11-20T15:02:29;8.55;;;3.58;;
34832;SDS011;55941;50.800;4.342;2022-11-20T15:04:59;5.43;;;3.00;;
34832;SDS011;55941;50.800;4.342;2022-11-20T15:07:30;6.72;;;3.03;;
34832;SDS011;55941;50.800;4.342;2022-11-20T15:12:50;4.43;;;2.50;;
34832;SDS011;55941;50.800;4.342;2022-11-20T15:15:39;9.60;;;2.67;;
34832;SDS011;55941;50.800;4.342;2022-11-20T15:18:15;7.53;;;3.10;;
34832;SDS011;55941;50.800;4.342;2022-11-20T15:20:43;6.05;;;2.72;;
34832;SDS011;55941;50.800;4.342;2022-11-20T15:23:11;6.15;;;3.42;;
34832;SDS011;55941;50.800;4.342;2022-11-20T15:25:39;9.27;;;3.45;;
34832;SDS011;55941;50.800;4.342;2022-11-20T15:28:12;9.30;;;2.95;;
34832;SDS011;55941;50.800;4.342;2022-11-20T15:30:43;12.90;;;3.60;;
34832;SDS011;55941;50.800;4.342;2022-11-20T15:33:10;15.85;;;4.53;;
34832;SDS011;55941;50.800;4.342;2022-11-20T15:35:37;11.98;;;2.90;;
34832;SDS011;55941;50.800;4.342;2022-11-20T15:38:03;12.05;;;3.47;;
34832;SDS011;55941;50.800;4.342;2022-11-20T15:40:29;13.60;;;3.40;;
34832;SDS011;55941;50.800;4.342;2022-11-20T15:42:54;20.80;;;4.28;;
34832;SDS011;55941;50.800;4.342;2022-11-20T15:45:50;16.92;;;3.60;;
34832;SDS011;55941;50.800;4.342;2022-11-20T15:48:19;17.17;;;4.10;;
34832;SDS011;55941;50.800;4.342;2022-11-20T15:50:49;14.93;;;3.60;;
34832;SDS011;55941;50.800;4.342;2022-11-20T15:53:19;17.10;;;4.03;;
34832;SDS011;55941;50.800;4.342;2022-11-20T15:55:44;11.75;;;3.38;;